sensor_id;sensor_type;location;lat;lon;timestamp;pressure;altitude;pressure_sealevel;temperature;humidity
55068;BME280;40965;52.368;9.712;2022-09-09T00:04:45;100236.59;;;12.82;100.00
55068;BME280;40965;52.368;9.712;2022-09-09T00:07:13;100243.69;;;12.78;100.00
55068;BME280;40965;52.368;9.712;2022-09-09T00:10:16;100237.72;;;12.71;100.00
55068;BME280;40965;52.368;9.712;2022-09-09T00:19:07;100238.72;;;12.66;100.00
55068;BME280;40965;52.368;9.712;2022-09-09T00:22:16;100243.13;;;12.65;100.00
55068;BME280;40965;52.368;9.712;2022-09-09T00:24:52;100234.41;;;12.65;100.00
55068;BME280;40965;52.368;9.712;2022-09-09T00:27:35;100242.28;;;12.65;100.00
55068;BME280;40965;52.368;9.712;2022-09-09T00:30:32;100237.06;;;12.62;100.00
55068;BME280;40965;52.368;9.712;2022-09-09T00:33:10;100231.78;;;12.63;100.00
55068;BME280;40965;52.368;9.712;2022-09-09T00:35:51;100234.44;;;12.62;100.00
55068;BME280;40965;52.368;9.712;2022-09-09T00:38:26;100230.19;;;12.57;100.00
55068;BME280;40965;52.368;9.712;2022-09-09T00:41:05;100225.81;;;12.58;100.00
55068;BME280;40965;52.368;9.712;2022-09-09T00:43:39;100230.22;;;12.56;100.00
55068;BME280;40965;52.368;9.712;2022-09-09T00:52:17;100236.41;;;12.53;100.00
55068;BME280;40965;52.368;9.712;2022-09-09T00:57:52;100229.53;;;12.48;100.00
55068;BME280;40965;52.368;9.712;2022-09-09T01:00:25;100229.53;;;12.48;100.00
55068;BME280;40965;52.368;9.712;2022-09-09T01:03:10;100232.28;;;12.43;100.00
55068;BME280;40965;52.368;9.712;2022-09-09T01:06:12;100235.72;;;12.45;100.00
55068;BME280;40965;52.368;9.712;2022-09-09T01:08:52;100241.88;;;12.44;100.00
55068;BME280;40965;52.368;9.712;2022-09-09T01:17:20;100236.81;;;12.36;100.00
55068;BME280;40965;52.368;9.712;2022-09-09T01:22:38;100232.41;;;12.38;100.00
55068;BME280;40965;52.368;9.712;2022-09-09T01:28:35;100224.31;;;12.46;100.00
55068;BME280;40965;52.368;9.712;2022-09-09T01:31:04;100227.69;;;12.53;100.00
55068;BME280;40965;52.368;9.712;2022-09-09T01:33:34;100229.41;;;12.52;100.00
55068;BME280;40965;52.368;9.712;2022-09-09T01:36:19;100217.19;;;12.51;100.00
55068;BME280;40965;52.368;9.712;2022-09-09T01:38:52;100223.38;;;12.50;100.00
55068;BME280;40965;52.368;9.712;2022-09-09T01:41:23;100231.28;;;12.47;100.00
55068;BME280;40965;52.368;9.712;2022-09-09T01:43:50;100226.09;;;12.46;100.00
55068;BME280;40965;52.368;9.712;2022-09-09T01:46:22;100235.75;;;12.44;100.00
55068;BME280;40965;52.368;9.712;2022-09-09T01:48:53;100227.06;;;12.41;100.00
55068;BME280;40965;52.368;9.712;2022-09-09T01:51:22;100237.56;;;12.41;100.00
55068;BME280;40965;52.368;9.712;2022-09-09T01:53:50;100233.19;;;12.40;100.00
55068;BME280;40965;52.368;9.712;2022-09-09T01:56:32;100231.50;;;12.38;100.00
55068;BME280;40965;52.368;9.712;2022-09-09T01:59:26;100228.06;;;12.36;100.00
55068;BME280;40965;52.368;9.712;2022-09-09T02:02:20;100233.19;;;12.40;100.00
55068;BME280;40965;52.368;9.712;2022-09-09T02:05:06;100241.88;;;12.44;100.00
55068;BME280;40965;52.368;9.712;2022-09-09T02:07:42;100235.75;;;12.44;100.00
55068;BME280;40965;52.368;9.712;2022-09-09T02:10:17;100238.44;;;12.40;100.00
55068;BME280;40965;52.368;9.712;2022-09-09T02:12:52;100231.38;;;12.44;100.00
55068;BME280;40965;52.368;9.712;2022-09-09T02:15:29;100233.81;;;12.52;100.00
55068;BME280;40965;52.368;9.712;2022-09-09T02:18:19;100232.81;;;12.57;100.00
55068;BME280;40965;52.368;9.712;2022-09-09T02:20:56;100230.00;;;12.65;100.00
55068;BME280;40965;52.368;9.712;2022-09-09T02:23:25;100222.88;;;12.70;100.00
55068;BME280;40965;52.368;9.712;2022-09-09T02:25:55;100225.31;;;12.78;100.00
55068;BME280;40965;52.368;9.712;2022-09-09T02:28:26;100225.16;;;12.84;100.00
55068;BME280;40965;52.368;9.712;2022-09-09T02:31:05;100231.16;;;12.88;100.00
55068;BME280;40965;52.368;9.712;2022-09-09T02:33:40;100232.91;;;12.89;100.00
55068;BME280;40965;52.368;9.712;2022-09-09T02:36:12;100224.28;;;12.84;100.00
55068;BME280;40965;52.368;9.712;2022-09-09T02:38:46;100224.38;;;12.81;100.00
55068;BME280;40965;52.368;9.712;2022-09-09T02:41:26;100219.03;;;12.84;100.00
55068;BME280;40965;52.368;9.712;2022-09-09T02:44:00;100213.63;;;12.90;100.00
55068;BME280;40965;52.368;9.712;2022-09-09T02:49:56;100216.75;;;13.04;100.00
55068;BME280;40965;52.368;9.712;2022-09-09T02:58:11;100231.28;;;13.18;100.00
55068;BME280;40965;52.368;9.712;2022-09-09T03:00:43;100218.97;;;13.20;100.00
55068;BME280;40965;52.368;9.712;2022-09-09T03:03:12;100219.72;;;13.25;100.00
55068;BME280;40965;52.368;9.712;2022-09-09T03:05:43;100227.41;;;13.33;100.00
55068;BME280;40965;52.368;9.712;2022-09-09T03:08:15;100222.91;;;13.38;100.00
55068;BME280;40965;52.368;9.712;2022-09-09T03:10:47;100228.03;;;13.43;100.00
55068;BME280;40965;52.368;9.712;2022-09-09T03:13:15;100228.84;;;13.45;100.00
55068;BME280;40965;52.368;9.712;2022-09-09T03:15:44;100235.75;;;13.49;100.00
55068;BME280;40965;52.368;9.712;2022-09-09T03:18:16;100234.94;;;13.47;100.00
55068;BME280;40965;52.368;9.712;2022-09-09T03:20:46;100243.69;;;13.47;100.00
55068;BME280;40965;52.368;9.712;2022-09-09T03:23:17;100235.75;;;13.49;100.00
55068;BME280;40965;52.368;9.712;2022-09-09T03:25:48;100233.06;;;13.50;100.00
55068;BME280;40965;52.368;9.712;2022-09-09T03:28:20;100230.50;;;13.49;100.00
55068;BME280;40965;52.368;9.712;2022-09-09T03:31:01;100240.09;;;13.50;100.00
55068;BME280;40965;52.368;9.712;2022-09-09T03:33:31;100229.59;;;13.50;100.00
55068;BME280;40965;52.368;9.712;2022-09-09T03:35:59;100226.06;;;13.51;100.00
55068;BME280;40965;52.368;9.712;2022-09-09T03:38:26;100228.69;;;13.51;100.00
55068;BME280;40965;52.368;9.712;2022-09-09T03:40:55;100225.16;;;13.52;100.00
55068;BME280;40965;52.368;9.712;2022-09-09T03:43:26;100236.47;;;13.54;100.00
55068;BME280;40965;52.368;9.712;2022-09-09T03:45:55;100231.22;;;13.54;100.00
55068;BME280;40965;52.368;9.712;2022-09-09T03:48:22;100222.44;;;13.55;100.00
55068;BME280;40965;52.368;9.712;2022-09-09T03:50:54;100229.50;;;13.53;100.00
55068;BME280;40965;52.368;9.712;2022-09-09T03:53:23;100221.59;;;13.53;100.00
55068;BME280;40965;52.368;9.712;2022-09-09T03:55:52;100215.50;;;13.52;100.00
55068;BME280;40965;52.368;9.712;2022-09-09T03:58:25;100220.75;;;13.52;100.00
55068;BME280;40965;52.368;9.712;2022-09-09T04:00:59;100226.00;;;13.52;100.00
55068;BME280;40965;52.368;9.712;2022-09-09T04:03:31;100220.75;;;13.52;100.00
55068;BME280;40965;52.368;9.712;2022-09-09T04:06:02;100230.44;;;13.50;100.00
55068;BME280;40965;52.368;9.712;2022-09-09T04:08:30;100220.84;;;13.49;100.00
55068;BME280;40965;52.368;9.712;2022-09-09T04:11:02;100226.97;;;13.50;100.00
55068;BME280;40965;52.368;9.712;2022-09-09T04:13:36;100233.91;;;13.52;100.00
55068;BME280;40965;52.368;9.712;2022-09-09T04:16:04;100232.06;;;13.54;100.00
55068;BME280;40965;52.368;9.712;2022-09-09T04:18:32;100234.69;;;13.56;100.00
55068;BME280;40965;52.368;9.712;2022-09-09T04:20:59;100235.59;;;13.55;100.00
55068;BME280;40965;52.368;9.712;2022-09-09T04:23:27;100228.53;;;13.55;100.00
55068;BME280;40965;52.368;9.712;2022-09-09T04:25:56;100231.13;;;13.57;100.00
55068;BME280;40965;52.368;9.712;2022-09-09T04:28:27;100234.63;;;13.57;100.00
55068;BME280;40965;52.368;9.712;2022-09-09T04:30:55;100235.38;;;13.63;100.00
55068;BME280;40965;52.368;9.712;2022-09-09T04:33:24;100234.47;;;13.64;100.00
55068;BME280;40965;52.368;9.712;2022-09-09T04:35:53;100229.97;;;13.67;100.00
55068;BME280;40965;52.368;9.712;2022-09-09T04:38:21;100231.56;;;13.73;100.00
55068;BME280;40965;52.368;9.712;2022-09-09T04:40:50;100237.63;;;13.77;100.00
55068;BME280;40965;52.368;9.712;2022-09-09T04:43:20;100237.53;;;13.80;100.00
55068;BME280;40965;52.368;9.712;2022-09-09T04:45:53;100240.94;;;13.83;100.00
55068;BME280;40965;52.368;9.712;2022-09-09T04:48:20;100233.75;;;13.88;100.00
55068;BME280;40965;52.368;9.712;2022-09-09T04:50:57;100238.94;;;13.92;100.00
55068;BME280;40965;52.368;9.712;2022-09-09T04:53:26;100242.41;;;13.92;100.00
55068;BME280;40965;52.368;9.712;2022-09-09T04:56:02;100253.72;;;13.96;100.00
55068;BME280;40965;52.368;9.712;2022-09-09T04:58:36;100249.28;;;13.98;100.00
55068;BME280;40965;52.368;9.712;2022-09-09T05:01:09;100236.91;;;14.00;100.00
55068;BME280;40965;52.368;9.712;2022-09-09T05:03:40;100249.19;;;14.01;100.00
55068;BME280;40965;52.368;9.712;2022-09-09T05:06:12;100247.41;;;14.01;100.00
55068;BME280;40965;52.368;9.712;2022-09-09T05:08:41;100252.63;;;14.03;100.00
55068;BME280;40965;52.368;9.712;2022-09-09T05:11:23;100244.69;;;14.04;100.00
55068;BME280;40965;52.368;9.712;2022-09-09T05:13:55;100249.84;;;14.07;100.00
55068;BME280;40965;52.368;9.712;2022-09-09T05:16:22;100259.44;;;14.10;100.00
55068;BME280;40965;52.368;9.712;2022-09-09T05:18:50;100256.75;;;14.12;100.00
55068;BME280;40965;52.368;9.712;2022-09-09T05:21:23;100254.94;;;14.14;100.00
55068;BME280;40965;52.368;9.712;2022-09-09T05:23:51;100253.09;;;14.17;100.00
55068;BME280;40965;52.368;9.712;2022-09-09T05:26:20;100255.63;;;14.20;100.00
55068;BME280;40965;52.368;9.712;2022-09-09T05:28:49;100252.03;;;14.23;100.00
55068;BME280;40965;52.368;9.712;2022-09-09T05:31:18;100258.91;;;14.27;100.00
55068;BME280;40965;52.368;9.712;2022-09-09T05:33:46;100250.13;;;14.28;100.00
55068;BME280;40965;52.368;9.712;2022-09-09T05:36:19;100253.59;;;14.29;100.00
55068;BME280;40965;52.368;9.712;2022-09-09T05:38:48;100259.63;;;14.32;100.00
55068;BME280;40965;52.368;9.712;2022-09-09T05:41:17;100264.81;;;14.35;100.00
55068;BME280;40965;52.368;9.712;2022-09-09T05:43:45;100255.03;;;14.39;100.00
55068;BME280;40965;52.368;9.712;2022-09-09T05:46:19;100268.13;;;14.42;100.00
55068;BME280;40965;52.368;9.712;2022-09-09T05:48:49;100261.97;;;14.42;100.00
55068;BME280;40965;52.368;9.712;2022-09-09T05:51:19;100268.91;;;14.46;100.00
55068;BME280;40965;52.368;9.712;2022-09-09T05:53:50;100273.09;;;14.51;100.00
55068;BME280;40965;52.368;9.712;2022-09-09T05:56:20;100273.91;;;14.53;100.00
55068;BME280;40965;52.368;9.712;2022-09-09T05:58:49;100275.50;;;14.59;100.00
55068;BME280;40965;52.368;9.712;2022-09-09T06:01:28;100271.00;;;14.63;100.00
55068;BME280;40965;52.368;9.712;2022-09-09T06:03:58;100277.03;;;14.66;100.00
55068;BME280;40965;52.368;9.712;2022-09-09T06:06:27;100272.59;;;14.68;100.00
55068;BME280;40965;52.368;9.712;2022-09-09T06:08:57;100269.06;;;14.69;100.00
55068;BME280;40965;52.368;9.712;2022-09-09T06:11:29;100273.44;;;14.69;100.00
55068;BME280;40965;52.368;9.712;2022-09-09T06:13:58;100270.91;;;14.66;100.00
55068;BME280;40965;52.368;9.712;2022-09-09T06:16:28;100274.34;;;14.69;100.00
55068;BME280;40965;52.368;9.712;2022-09-09T06:18:56;100280.31;;;14.75;100.00
55068;BME280;40965;52.368;9.712;2022-09-09T06:21:25;100284.56;;;14.79;100.00
55068;BME280;40965;52.368;9.712;2022-09-09T06:24:01;100279.09;;;14.85;100.00
55068;BME280;40965;52.368;9.712;2022-09-09T06:26:31;100277.19;;;14.90;100.00
55068;BME280;40965;52.368;9.712;2022-09-09T06:29:00;100279.53;;;14.98;100.00
55068;BME280;40965;52.368;9.712;2022-09-09T06:31:31;100274.06;;;15.04;100.00
55068;BME280;40965;52.368;9.712;2022-09-09T06:34:01;100285.31;;;15.09;100.00
55068;BME280;40965;52.368;9.712;2022-09-09T06:36:30;100280.81;;;15.13;100.00
55068;BME280;40965;52.368;9.712;2022-09-09T06:38:58;100278.06;;;15.16;100.00
55068;BME280;40965;52.368;9.712;2022-09-09T06:41:30;100275.47;;;15.14;100.00
55068;BME280;40965;52.368;9.712;2022-09-09T06:43:58;100269.41;;;15.12;100.00
55068;BME280;40965;52.368;9.712;2022-09-09T06:46:30;100273.66;;;15.16;100.00
55068;BME280;40965;52.368;9.712;2022-09-09T06:48:58;100262.88;;;15.22;100.00
55068;BME280;40965;52.368;9.712;2022-09-09T06:51:30;100265.94;;;15.37;100.00
55068;BME280;40965;52.368;9.712;2022-09-09T06:54:02;100258.38;;;15.51;100.00
55068;BME280;40965;52.368;9.712;2022-09-09T06:56:34;100267.56;;;15.65;100.00
55068;BME280;40965;52.368;9.712;2022-09-09T06:59:06;100273.19;;;15.81;100.00
55068;BME280;40965;52.368;9.712;2022-09-09T07:01:40;100270.88;;;16.19;100.00
55068;BME280;40965;52.368;9.712;2022-09-09T07:04:09;100278.81;;;16.41;100.00
55068;BME280;40965;52.368;9.712;2022-09-09T07:06:38;100272.16;;;16.31;100.00
55068;BME280;40965;52.368;9.712;2022-09-09T07:09:11;100269.13;;;16.42;100.00
55068;BME280;40965;52.368;9.712;2022-09-09T07:11:48;100267.91;;;16.73;100.00
55068;BME280;40965;52.368;9.712;2022-09-09T07:14:18;100257.50;;;17.52;100.00
55068;BME280;40965;52.368;9.712;2022-09-09T07:16:49;100260.84;;;18.35;100.00
55068;BME280;40965;52.368;9.712;2022-09-09T07:19:16;100263.56;;;19.07;94.21
55068;BME280;40965;52.368;9.712;2022-09-09T07:21:43;100268.00;;;19.75;90.32
55068;BME280;40965;52.368;9.712;2022-09-09T07:24:16;100266.47;;;20.36;85.64
55068;BME280;40965;52.368;9.712;2022-09-09T07:26:43;100271.03;;;20.82;81.37
55068;BME280;40965;52.368;9.712;2022-09-09T07:29:11;100270.63;;;21.04;80.09
55068;BME280;40965;52.368;9.712;2022-09-09T07:31:39;100271.13;;;21.56;79.11
55068;BME280;40965;52.368;9.712;2022-09-09T07:34:06;100271.22;;;21.83;72.45
55068;BME280;40965;52.368;9.712;2022-09-09T07:36:39;100275.09;;;22.21;72.26
55068;BME280;40965;52.368;9.712;2022-09-09T07:39:10;100270.03;;;22.45;72.33
55068;BME280;40965;52.368;9.712;2022-09-09T07:41:47;100279.66;;;22.19;71.00
55068;BME280;40965;52.368;9.712;2022-09-09T07:44:22;100272.00;;;22.00;68.94
55068;BME280;40965;52.368;9.712;2022-09-09T07:46:52;100267.31;;;22.03;70.67
55068;BME280;40965;52.368;9.712;2022-09-09T07:49:21;100270.31;;;22.26;70.19
55068;BME280;40965;52.368;9.712;2022-09-09T07:51:58;100273.06;;;22.53;68.78
55068;BME280;40965;52.368;9.712;2022-09-09T07:54:28;100282.38;;;23.01;66.16
55068;BME280;40965;52.368;9.712;2022-09-09T07:56:55;100284.19;;;23.66;63.34
55068;BME280;40965;52.368;9.712;2022-09-09T07:59:30;100286.78;;;24.43;61.09
55068;BME280;40965;52.368;9.712;2022-09-09T08:01:58;100282.22;;;24.57;57.25
55068;BME280;40965;52.368;9.712;2022-09-09T08:04:25;100284.69;;;24.84;57.09
55068;BME280;40965;52.368;9.712;2022-09-09T08:07:00;100281.00;;;25.09;56.27
55068;BME280;40965;52.368;9.712;2022-09-09T08:09:29;100287.75;;;25.73;54.22
55068;BME280;40965;52.368;9.712;2022-09-09T08:12:02;100289.06;;;25.45;54.44
55068;BME280;40965;52.368;9.712;2022-09-09T08:14:32;100284.59;;;25.80;53.60
55068;BME280;40965;52.368;9.712;2022-09-09T08:17:06;100284.38;;;26.72;50.09
55068;BME280;40965;52.368;9.712;2022-09-09T08:19:35;100291.28;;;27.18;49.88
55068;BME280;40965;52.368;9.712;2022-09-09T08:22:03;100289.56;;;27.60;47.29
55068;BME280;40965;52.368;9.712;2022-09-09T08:24:32;100292.56;;;27.87;47.36
55068;BME280;40965;52.368;9.712;2022-09-09T08:27:02;100294.44;;;27.45;45.54
55068;BME280;40965;52.368;9.712;2022-09-09T08:29:29;100290.69;;;25.93;48.49
55068;BME280;40965;52.368;9.712;2022-09-09T08:31:58;100300.31;;;24.66;52.04
55068;BME280;40965;52.368;9.712;2022-09-09T08:34:26;100299.25;;;23.54;55.52
55068;BME280;40965;52.368;9.712;2022-09-09T08:36:56;100300.97;;;22.33;59.73
55068;BME280;40965;52.368;9.712;2022-09-09T08:39:23;100310.16;;;22.00;61.11
55068;BME280;40965;52.368;9.712;2022-09-09T08:42:09;100320.59;;;21.74;62.13
55068;BME280;40965;52.368;9.712;2022-09-09T08:50:38;100321.94;;;21.37;63.71
55068;BME280;40965;52.368;9.712;2022-09-09T08:53:28;100332.09;;;21.30;63.50
55068;BME280;40965;52.368;9.712;2022-09-09T08:55:59;100335.47;;;21.18;63.53
55068;BME280;40965;52.368;9.712;2022-09-09T08:58:34;100336.91;;;20.93;64.87
55068;BME280;40965;52.368;9.712;2022-09-09T09:01:52;100338.94;;;21.04;65.35
55068;BME280;40965;52.368;9.712;2022-09-09T09:04:30;100337.53;;;20.82;64.28
55068;BME280;40965;52.368;9.712;2022-09-09T09:07:52;100339.13;;;20.69;65.36
55068;BME280;40965;52.368;9.712;2022-09-09T09:10:48;100338.00;;;20.41;66.53
55068;BME280;40965;52.368;9.712;2022-09-09T09:13:38;100332.41;;;20.45;66.99
55068;BME280;40965;52.368;9.712;2022-09-09T09:18:59;100342.28;;;20.43;66.73
55068;BME280;40965;52.368;9.712;2022-09-09T09:21:39;100336.09;;;20.27;67.26
55068;BME280;40965;52.368;9.712;2022-09-09T09:24:21;100349.06;;;19.99;68.17
55068;BME280;40965;52.368;9.712;2022-09-09T09:26:52;100349.06;;;19.99;68.31
55068;BME280;40965;52.368;9.712;2022-09-09T09:29:20;100332.56;;;20.10;68.45
55068;BME280;40965;52.368;9.712;2022-09-09T09:31:59;100335.25;;;20.26;67.78
55068;BME280;40965;52.368;9.712;2022-09-09T09:34:33;100337.25;;;20.55;67.17
55068;BME280;40965;52.368;9.712;2022-09-09T09:37:01;100328.28;;;21.04;65.09
55068;BME280;40965;52.368;9.712;2022-09-09T09:39:46;100332.88;;;21.77;61.46
55068;BME280;40965;52.368;9.712;2022-09-09T09:42:18;100324.31;;;22.29;60.32
55068;BME280;40965;52.368;9.712;2022-09-09T09:44:47;100322.22;;;22.49;58.29
55068;BME280;40965;52.368;9.712;2022-09-09T09:47:19;100320.13;;;22.25;59.54
55068;BME280;40965;52.368;9.712;2022-09-09T09:49:56;100321.84;;;21.97;59.19
55068;BME280;40965;52.368;9.712;2022-09-09T09:52:31;100321.00;;;21.68;61.15
55068;BME280;40965;52.368;9.712;2022-09-09T09:55:03;100312.28;;;21.50;61.88
55068;BME280;40965;52.368;9.712;2022-09-09T09:57:33;100314.94;;;21.50;62.26
55068;BME280;40965;52.368;9.712;2022-09-09T10:00:12;100318.63;;;21.78;62.10
55068;BME280;40965;52.368;9.712;2022-09-09T10:02:44;100313.06;;;22.80;58.68
55068;BME280;40965;52.368;9.712;2022-09-09T10:05:22;100316.56;;;23.36;56.03
55068;BME280;40965;52.368;9.712;2022-09-09T10:11:00;100305.63;;;24.42;52.67
55068;BME280;40965;52.368;9.712;2022-09-09T10:13:39;100287.13;;;25.58;49.00
55068;BME280;40965;52.368;9.712;2022-09-09T10:17:00;100293.94;;;24.80;48.97
55068;BME280;40965;52.368;9.712;2022-09-09T10:23:13;100295.69;;;22.88;55.43
55068;BME280;40965;52.368;9.712;2022-09-09T10:26:12;100299.97;;;22.63;56.53
55068;BME280;40965;52.368;9.712;2022-09-09T10:28:55;100300.69;;;22.23;57.53
55068;BME280;40965;52.368;9.712;2022-09-09T10:31:54;100301.38;;;21.69;59.02
55068;BME280;40965;52.368;9.712;2022-09-09T10:34:56;100300.38;;;21.41;60.51
55068;BME280;40965;52.368;9.712;2022-09-09T10:37:37;100296.16;;;21.23;61.10
55068;BME280;40965;52.368;9.712;2022-09-09T10:40:31;100300.19;;;21.14;61.63
55068;BME280;40965;52.368;9.712;2022-09-09T10:43:18;100294.28;;;21.09;61.19
55068;BME280;40965;52.368;9.712;2022-09-09T10:46:23;100300.34;;;20.96;61.62
55068;BME280;40965;52.368;9.712;2022-09-09T10:53:01;100307.13;;;20.86;61.92
55068;BME280;40965;52.368;9.712;2022-09-09T10:55:42;100317.63;;;20.73;62.68
55068;BME280;40965;52.368;9.712;2022-09-09T10:58:25;100316.81;;;20.55;63.48
55068;BME280;40965;52.368;9.712;2022-09-09T11:01:10;100311.25;;;20.44;63.90
55068;BME280;40965;52.368;9.712;2022-09-09T11:03:52;100316.31;;;20.32;64.66
55068;BME280;40965;52.368;9.712;2022-09-09T11:06:29;100311.56;;;20.22;65.18
55068;BME280;40965;52.368;9.712;2022-09-09T11:09:00;100323.03;;;20.06;66.78
55068;BME280;40965;52.368;9.712;2022-09-09T11:11:39;100331.38;;;19.82;68.58
55068;BME280;40965;52.368;9.712;2022-09-09T11:14:20;100321.25;;;19.56;70.96
55068;BME280;40965;52.368;9.712;2022-09-09T11:17:04;100319.13;;;19.27;73.07
55068;BME280;40965;52.368;9.712;2022-09-09T11:19:55;100301.47;;;18.91;77.04
55068;BME280;40965;52.368;9.712;2022-09-09T11:25:28;100318.56;;;18.47;84.33
55068;BME280;40965;52.368;9.712;2022-09-09T11:37:01;100354.63;;;17.29;100.00
55068;BME280;40965;52.368;9.712;2022-09-09T11:40:00;100341.75;;;16.99;100.00
55068;BME280;40965;52.368;9.712;2022-09-09T11:42:36;100332.09;;;16.52;100.00
55068;BME280;40965;52.368;9.712;2022-09-09T11:45:11;100341.03;;;16.02;100.00
55068;BME280;40965;52.368;9.712;2022-09-09T11:47:53;100346.69;;;15.39;100.00
55068;BME280;40965;52.368;9.712;2022-09-09T11:53:05;100345.28;;;15.02;100.00
55068;BME280;40965;52.368;9.712;2022-09-09T11:55:39;100351.41;;;15.03;100.00
55068;BME280;40965;52.368;9.712;2022-09-09T12:00:44;100334.38;;;15.15;100.00
55068;BME280;40965;52.368;9.712;2022-09-09T12:06:20;100321.50;;;15.04;100.00
55068;BME280;40965;52.368;9.712;2022-09-09T12:08:56;100323.25;;;15.05;100.00
55068;BME280;40965;52.368;9.712;2022-09-09T12:11:31;100318.56;;;15.13;100.00
55068;BME280;40965;52.368;9.712;2022-09-09T12:14:00;100327.59;;;15.33;100.00
55068;BME280;40965;52.368;9.712;2022-09-09T12:16:34;100319.75;;;15.57;100.00
55068;BME280;40965;52.368;9.712;2022-09-09T12:19:14;100315.53;;;16.01;100.00
55068;BME280;40965;52.368;9.712;2022-09-09T12:21:54;100319.72;;;16.77;100.00
55068;BME280;40965;52.368;9.712;2022-09-09T12:24:40;100331.25;;;18.22;95.45
55068;BME280;40965;52.368;9.712;2022-09-09T12:27:22;100326.66;;;20.05;82.28
55068;BME280;40965;52.368;9.712;2022-09-09T12:30:02;100322.88;;;21.21;75.76
55068;BME280;40965;52.368;9.712;2022-09-09T12:32:31;100320.53;;;22.05;72.05
55068;BME280;40965;52.368;9.712;2022-09-09T12:35:11;100326.88;;;22.45;68.86
55068;BME280;40965;52.368;9.712;2022-09-09T12:37:58;100320.91;;;24.03;63.59
55068;BME280;40965;52.368;9.712;2022-09-09T12:40:34;100310.56;;;24.72;58.05
55068;BME280;40965;52.368;9.712;2022-09-09T12:43:20;100309.94;;;26.44;55.11
55068;BME280;40965;52.368;9.712;2022-09-09T12:45:54;100303.00;;;27.60;49.01
55068;BME280;40965;52.368;9.712;2022-09-09T12:48:55;100295.44;;;28.56;47.29
55068;BME280;40965;52.368;9.712;2022-09-09T12:51:29;100300.50;;;27.04;48.57
55068;BME280;40965;52.368;9.712;2022-09-09T12:54:03;100298.69;;;25.48;54.19
55068;BME280;40965;52.368;9.712;2022-09-09T12:56:35;100306.19;;;24.34;56.24
55068;BME280;40965;52.368;9.712;2022-09-09T12:59:02;100304.41;;;23.57;57.41
55068;BME280;40965;52.368;9.712;2022-09-09T13:01:31;100301.91;;;23.16;60.04
55068;BME280;40965;52.368;9.712;2022-09-09T13:04:19;100301.38;;;22.96;59.42
55068;BME280;40965;52.368;9.712;2022-09-09T13:06:47;100303.50;;;22.63;61.41
55068;BME280;40965;52.368;9.712;2022-09-09T13:09:17;100300.63;;;22.10;62.52
55068;BME280;40965;52.368;9.712;2022-09-09T13:11:51;100300.72;;;21.66;64.81
55068;BME280;40965;52.368;9.712;2022-09-09T13:14:35;100302.81;;;21.30;65.32
55068;BME280;40965;52.368;9.712;2022-09-09T13:17:06;100299.03;;;21.04;67.46
55068;BME280;40965;52.368;9.712;2022-09-09T13:19:44;100286.66;;;20.72;68.36
55068;BME280;40965;52.368;9.712;2022-09-09T13:22:31;100292.53;;;20.45;70.36
55068;BME280;40965;52.368;9.712;2022-09-09T13:25:22;100296.41;;;20.24;72.26
55068;BME280;40965;52.368;9.712;2022-09-09T13:28:01;100300.22;;;20.02;73.26
55068;BME280;40965;52.368;9.712;2022-09-09T13:30:30;100293.34;;;19.82;74.08
55068;BME280;40965;52.368;9.712;2022-09-09T13:35:55;100290.19;;;19.40;76.42
55068;BME280;40965;52.368;9.712;2022-09-09T13:38:24;100279.41;;;19.26;76.99
55068;BME280;40965;52.368;9.712;2022-09-09T13:43:45;100275.91;;;19.08;79.25
55068;BME280;40965;52.368;9.712;2022-09-09T13:46:40;100279.16;;;18.95;80.68
55068;BME280;40965;52.368;9.712;2022-09-09T13:51:39;100281.81;;;18.95;80.96
55068;BME280;40965;52.368;9.712;2022-09-09T13:54:10;100278.13;;;18.98;81.31
55068;BME280;40965;52.368;9.712;2022-09-09T13:56:39;100277.28;;;18.97;81.61
55068;BME280;40965;52.368;9.712;2022-09-09T13:59:16;100273.09;;;18.93;82.13
55068;BME280;40965;52.368;9.712;2022-09-09T14:01:51;100264.03;;;18.97;81.79
55068;BME280;40965;52.368;9.712;2022-09-09T14:04:20;100274.00;;;19.10;81.76
55068;BME280;40965;52.368;9.712;2022-09-09T14:06:48;100273.22;;;19.25;81.39
55068;BME280;40965;52.368;9.712;2022-09-09T14:09:18;100275.81;;;19.44;80.62
55068;BME280;40965;52.368;9.712;2022-09-09T14:11:48;100263.19;;;19.65;79.86
55068;BME280;40965;52.368;9.712;2022-09-09T14:14:19;100271.34;;;19.78;77.46
55068;BME280;40965;52.368;9.712;2022-09-09T14:16:52;100267.47;;;19.86;76.22
55068;BME280;40965;52.368;9.712;2022-09-09T14:19:29;100270.91;;;19.88;75.23
55068;BME280;40965;52.368;9.712;2022-09-09T14:22:03;100267.78;;;19.79;74.51
55068;BME280;40965;52.368;9.712;2022-09-09T14:24:29;100258.81;;;19.82;74.63
55068;BME280;40965;52.368;9.712;2022-09-09T14:26:58;100262.84;;;19.89;74.80
55068;BME280;40965;52.368;9.712;2022-09-09T14:29:26;100260.56;;;19.99;74.90
55068;BME280;40965;52.368;9.712;2022-09-09T14:31:52;100247.03;;;20.20;74.60
55068;BME280;40965;52.368;9.712;2022-09-09T14:34:21;100247.69;;;20.55;73.06
55068;BME280;40965;52.368;9.712;2022-09-09T14:37:06;100238.00;;;22.03;68.28
55068;BME280;40965;52.368;9.712;2022-09-09T14:39:33;100240.09;;;24.48;58.66
55068;BME280;40965;52.368;9.712;2022-09-09T14:41:59;100241.53;;;26.27;51.92
55068;BME280;40965;52.368;9.712;2022-09-09T14:44:26;100249.09;;;26.33;52.01
55068;BME280;40965;52.368;9.712;2022-09-09T14:46:55;100241.78;;;27.00;50.49
55068;BME280;40965;52.368;9.712;2022-09-09T14:49:29;100243.19;;;26.83;49.99
55068;BME280;40965;52.368;9.712;2022-09-09T14:51:56;100233.63;;;27.84;45.99